Impacts TAF Board INFO
FOR SITUATIONAL AWARENESS. NOT TO BE USED FOR FLIGHT PLANNING PURPOSES.
IDs:

KPHL - Philadelphia Intl, PA, US

Issued at 1754 UTC 23 Feb 2017
Updated at 1831 UTC 23 Feb 2017
Potential Impact None Slight Moderate High
Time1754Z 23/19Z 23/20Z 23/21Z 23/22Z 23/23Z 24/00Z 24/01Z 24/02Z 24/03Z 24/04Z 24/05Z 24/06Z 24/07Z
Type OBS PRVL PRVL PRVL PRVL PRVL PRVL PRVL PRVL PRVL PRVL PRVL PRVL PRVL
VIS 10 >6 >6 >6 >6 >6 >6 >6 >6 >6 >6 >6 >6 >6
CIG -- -- -- -- -- -- -- -- -- 70 70 70 70 70
Cover SCT FEW FEW FEW FEW FEW FEW FEW FEW BKN BKN BKN BKN BKN
FltCat VFR VFR VFR VFR VFR VFR VFR VFR VFR VFR VFR VFR VFR VFR
WX -- -- -- -- -- -- -- -- -- -- -- -- -- --
WDir 270 230 230 230 230 230 230 230 230 200 200 200 200 200
WSpd 6 6 6 6 6 6 6 6 6 6 6 6 6 6
WGst -- -- -- -- -- -- -- -- -- -- -- -- -- --

Raw TAF
KPHL 231754Z 2318/2424 23006KT P6SM FEW070
  FM240300 20006KT P6SM BKN070
  FM240800 20004KT 4SM BR SCT060
  FM240900 VRB03KT 2SM BR SCT004 OVC010
  TEMPO 2410/2413 1/2SM FG OVC004
  FM241300 VRB03KT 1 1/2SM BR OVC006
  FM241400 20005KT 3SM BR OVC009
  FM241500 20010KT P6SM SCT010 BKN120


Raw METAR
KPHL 231754Z 27006KT 10SM FEW022 FEW070 SCT270 18/12 A2985 RMK AO2 SLP108 T01830117 10183 20094 58023
KPHL 231654Z 23006KT 7SM FEW010 FEW070 SCT250 15/12 A2989 RMK AO2 SLP120 T01500117
KPHL 231638Z 23006KT 7SM SCT008 BKN250 14/12 A2990 RMK AO2 T01390117
KPHL 231627Z 23008KT 6SM BR BKN007 13/12 A2990 RMK AO2 T01330117
KPHL 231604Z 23008KT 5SM BR OVC005 12/12 A2991 RMK AO2 T01220117
KPHL 231554Z 23008KT 3SM BR OVC004 12/12 A2992 RMK AO2 SLP130 T01220117
KPHL 231546Z 23008KT 2SM BR OVC003 12/12 A2992 RMK AO2 T01220117

METAR Board
Radar Display
Forecast Discussion

FOR SITUATIONAL AWARENESS. NOT TO BE USED FOR FLIGHT PLANNING PURPOSES.

Page loaded:  18:31 UTC  |   10:31 AM Pacific  |   11:31 AM Mountain  |   12:31 PM Central  |   01:31 PM Eastern

 

ADVISORIES

FORECASTS

FORECASTS

OBSERVATIONS

USER TOOLS

ABOUT US